Time;durP1;ratioP1;P1;durP2;ratioP2;P2;SDS_P1;SDS_P2;PMS_P1;PMS_P2;Temp;Humidity;BMP_temperature;BMP_pressure;BME280_temperature;BME280_humidity;BME280_pressure;Samples;Min_cycle;Max_cycle;Signal;HPM_P1;HPM_P2
2023/03/29 00:02:29;;;;;;;0.00;0.00;;;4.60;99.90;;;;;;5068951;28;20097;-87
2023/03/29 00:05:00;;;;;;;0.05;0.05;;;5.30;1.00;;;;;;5069116;28;20481;-87
2023/03/29 00:07:28;;;;;;;0.32;0.32;;;4.60;90.40;;;;;;5056887;28;20126;-87
2023/03/29 00:09:54;;;;;;;0.35;0.35;;;4.60;1.00;;;;;;5048558;28;20550;-88
2023/03/29 00:12:20;;;;;;;0.00;0.00;;;4.60;1.00;;;;;;5047474;28;20132;-88
2023/03/29 00:14:46;;;;;;;0.00;0.00;;;4.50;1.00;;;;;;5048204;28;20127;-87
2023/03/29 00:17:12;;;;;;;0.38;0.15;;;4.50;64.40;;;;;;5047934;28;20049;-87
2023/03/29 00:19:38;;;;;;;0.38;0.38;;;4.60;99.90;;;;;;5049595;28;20060;-88
2023/03/29 00:22:06;;;;;;;0.10;0.10;;;4.60;1.00;;;;;;5048822;28;20083;-87
2023/03/29 00:24:32;;;;;;;0.00;0.00;;;4.60;1.00;;;;;;5049389;28;20045;-88
2023/03/29 00:26:58;;;;;;;0.00;0.00;;;4.50;50.50;;;;;;5047505;28;20517;-87
2023/03/29 00:29:24;;;;;;;0.05;0.05;;;4.70;99.90;;;;;;5047304;28;20392;-87
2023/03/29 00:31:52;;;;;;;0.08;0.08;;;4.60;99.90;;;;;;5048597;28;20486;-87
2023/03/29 00:34:23;;;;;;;0.00;0.00;;;4.50;99.90;;;;;;5051235;28;20090;-87
2023/03/29 00:36:49;;;;;;;0.25;0.25;;;4.60;99.90;;;;;;5068785;28;20040;-87
2023/03/29 00:39:19;;;;;;;0.73;0.73;;;4.50;1.00;;;;;;5068688;28;20056;-87
2023/03/29 00:41:49;;;;;;;0.00;0.00;;;4.50;1.00;;;;;;5067544;28;20104;-87
2023/03/29 00:44:55;;;;;;;0.43;0.43;;;4.60;99.90;;;;;;5068240;28;20053;-87
2023/03/29 00:47:28;;;;;;;0.00;0.00;;;4.70;34.10;;;;;;5067393;28;20044;-87
2023/03/29 00:49:56;;;;;;;0.00;0.00;;;4.70;1.00;;;;;;5066820;28;20041;-87
2023/03/29 00:52:23;;;;;;;1.08;0.30;;;4.60;99.90;;;;;;5066859;28;20633;-87
2023/03/29 00:54:53;;;;;;;0.13;0.13;;;5.80;99.90;;;;;;5068302;28;20040;-88
2023/03/29 00:57:21;;;;;;;0.00;0.00;;;4.90;1.00;;;;;;5066807;28;20052;-87
2023/03/29 00:59:49;;;;;;;0.55;0.55;;;4.80;99.90;;;;;;5066882;28;20074;-87
2023/03/29 01:02:20;;;;;;;0.00;0.00;;;4.90;99.90;;;;;;5066491;28;20041;-87
2023/03/29 01:04:56;;;;;;;0.75;0.75;;;4.90;99.90;;;;;;5068879;28;20072;-87
2023/03/29 01:07:46;;;;;;;0.00;0.00;;;4.90;36.60;;;;;;5068994;28;20048;-88
2023/03/29 01:10:40;;;;;;;0.00;0.00;;;5.00;1.00;;;;;;5062555;28;20037;-88
2023/03/29 01:13:10;;;;;;;0.17;0.17;;;4.90;99.90;;;;;;5047118;28;20110;-88
2023/03/29 01:15:39;;;;;;;0.65;0.65;;;4.90;99.90;;;;;;5048640;28;20052;-88
2023/03/29 01:18:05;;;;;;;0.10;0.10;;;5.00;99.90;;;;;;5047510;28;20049;-89
2023/03/29 01:20:42;;;;;;;0.40;0.40;;;4.80;1.00;;;;;;5046542;28;20478;-88
2023/03/29 01:23:32;;;;;;;0.00;0.00;;;4.80;92.10;;;;;;5063184;28;20044;-88
2023/03/29 01:26:04;;;;;;;0.40;0.40;;;4.90;99.90;;;;;;5066894;28;20060;-88
2023/03/29 01:28:38;;;;;;;0.30;0.28;;;5.00;99.90;;;;;;5067133;28;20414;-88
2023/03/29 01:31:29;;;;;;;0.00;0.00;;;5.10;99.20;;;;;;5067784;28;20561;-88
2023/03/29 01:34:07;;;;;;;0.28;0.15;;;5.00;99.90;;;;;;5066227;28;20033;-88
2023/03/29 01:37:00;;;;;;;0.25;0.22;;;5.00;99.20;;;;;;5066472;28;20131;-88
2023/03/29 01:39:26;;;;;;;0.00;0.00;;;5.00;71.50;;;;;;5065544;28;20060;-88
2023/03/29 01:42:19;;;;;;;0.35;0.20;;;5.00;99.90;;;;;;5065700;28;20044;-88
2023/03/29 01:45:06;;;;;;;0.30;0.28;;;5.10;99.90;;;;;;5067612;28;20056;-88
2023/03/29 01:47:40;;;;;;;0.43;0.43;;;5.10;70.70;;;;;;5067725;28;20055;-88
2023/03/29 01:50:24;;;;;;;8.32;0.52;;;5.20;99.90;;;;;;5066001;28;20083;-88
2023/03/29 01:52:58;;;;;;;0.65;0.65;;;5.10;1.00;;;;;;5065877;28;20051;-88
2023/03/29 01:55:31;;;;;;;0.63;0.43;;;5.90;99.90;;;;;;5065771;28;20059;-88
2023/03/29 01:57:59;;;;;;;0.00;0.00;;;6.10;99.90;;;;;;5067162;28;20041;-87
2023/03/29 02:00:28;;;;;;;0.00;0.00;;;5.30;1.00;;;;;;5061704;28;20072;-88
2023/03/29 02:02:58;;;;;;;0.00;0.00;;;5.30;1.00;;;;;;5048139;28;20052;-88
2023/03/29 02:05:27;;;;;;;0.17;0.17;;;5.30;1.00;;;;;;5047922;28;20055;-87
2023/03/29 02:07:54;;;;;;;0.10;0.10;;;5.30;23.60;;;;;;5048178;28;20510;-88
2023/03/29 02:10:21;;;;;;;1.05;0.73;;;5.30;31.40;;;;;;5064457;28;20522;-87
2023/03/29 02:12:47;;;;;;;0.40;0.40;;;5.30;99.90;;;;;;5066395;28;20604;-87
2023/03/29 02:15:17;;;;;;;0.55;0.55;;;5.30;25.50;;;;;;5065130;28;20131;-88
2023/03/29 02:17:43;;;;;;;0.75;0.75;;;5.20;99.90;;;;;;5065398;28;20175;-88
2023/03/29 02:20:19;;;;;;;29.92;2.30;;;5.20;1.00;;;;;;5051188;28;20152;-87
2023/03/29 02:23:07;;;;;;;0.52;0.43;;;5.20;1.00;;;;;;5047442;28;20056;-88
2023/03/29 02:25:33;;;;;;;0.82;0.65;;;5.30;99.90;;;;;;5048275;28;20106;-88
2023/03/29 02:28:00;;;;;;;0.75;0.75;;;5.30;10.70;;;;;;5061565;28;20045;-88
2023/03/29 02:30:33;;;;;;;0.00;0.00;;;5.20;99.90;;;;;;5069148;28;20048;-88
2023/03/29 02:33:13;;;;;;;0.90;0.75;;;5.20;99.90;;;;;;5069433;28;20044;-88
2023/03/29 02:36:01;;;;;;;0.00;0.00;;;5.30;99.90;;;;;;5071949;28;20468;-88
2023/03/29 02:38:28;;;;;;;3.20;0.65;;;5.20;99.90;;;;;;5071046;28;20490;-88
2023/03/29 02:40:57;;;;;;;2.90;1.10;;;5.30;99.90;;;;;;5069895;28;20044;-87
2023/03/29 02:43:24;;;;;;;0.10;0.10;;;5.20;42.00;;;;;;5071438;28;20049;-88
2023/03/29 02:45:51;;;;;;;13.05;2.53;;;5.20;99.90;;;;;;5071079;28;20070;-87
2023/03/29 02:48:21;;;;;;;0.65;0.63;;;5.20;1.00;;;;;;5070273;28;20054;-87
2023/03/29 02:50:52;;;;;;;1.00;0.65;;;5.20;99.90;;;;;;5052375;28;20048;-87
2023/03/29 02:53:23;;;;;;;0.00;0.00;;;5.20;99.90;;;;;;5048705;28;20049;-87
2023/03/29 02:55:48;;;;;;;0.00;0.00;;;5.30;99.90;;;;;;5050712;28;20045;-87
2023/03/29 02:58:14;;;;;;;0.05;0.05;;;5.30;99.90;;;;;;5049397;28;20045;-87
2023/03/29 03:00:44;;;;;;;0.13;0.13;;;5.40;1.00;;;;;;5049865;28;20410;-87
2023/03/29 03:03:11;;;;;;;0.10;0.10;;;6.20;14.20;;;;;;5051441;28;20049;-87
2023/03/29 03:05:37;;;;;;;0.50;0.50;;;5.30;99.90;;;;;;5050993;28;20500;-87
2023/03/29 03:08:06;;;;;;;0.43;0.43;;;5.30;99.90;;;;;;5056750;28;20049;-87
2023/03/29 03:10:35;;;;;;;0.55;0.55;;;5.40;1.00;;;;;;5044735;28;20072;-87
2023/03/29 03:13:01;;;;;;;0.00;0.00;;;5.30;99.90;;;;;;5057888;28;20049;-87
2023/03/29 03:15:27;;;;;;;0.25;0.25;;;5.30;99.90;;;;;;5061585;28;20067;-87
2023/03/29 03:17:53;;;;;;;1.50;1.40;;;5.30;99.90;;;;;;5049946;28;20474;-87
2023/03/29 03:20:21;;;;;;;0.38;0.38;;;5.30;1.00;;;;;;5051191;28;20408;-87
2023/03/29 03:22:47;;;;;;;0.10;0.10;;;5.40;1.00;;;;;;5050447;28;20049;-87
2023/03/29 03:25:21;;;;;;;0.13;0.13;;;5.30;79.60;;;;;;5067566;28;20049;-87
2023/03/29 03:27:48;;;;;;;0.10;0.10;;;5.30;99.90;;;;;;5052817;28;20045;-87
2023/03/29 03:30:15;;;;;;;0.22;0.22;;;5.40;99.90;;;;;;5049309;28;20045;-87
2023/03/29 03:32:42;;;;;;;0.00;0.00;;;5.40;99.90;;;;;;5047273;28;20048;-87
2023/03/29 03:35:10;;;;;;;21.67;2.42;;;5.50;99.90;;;;;;5046854;28;20099;-87
2023/03/29 03:37:37;;;;;;;0.75;0.68;;;5.50;99.90;;;;;;5049056;28;20053;-87
2023/03/29 03:40:05;;;;;;;0.20;0.20;;;5.50;99.90;;;;;;5049804;28;20048;-87
2023/03/29 03:42:31;;;;;;;0.15;0.15;;;5.50;90.70;;;;;;5067616;28;20056;-87
2023/03/29 03:44:57;;;;;;;0.10;0.10;;;5.40;99.90;;;;;;5067399;28;20049;-87
2023/03/29 03:47:23;;;;;;;0.35;0.22;;;5.50;99.90;;;;;;5068417;28;20139;-87
2023/03/29 03:49:50;;;;;;;0.03;0.03;;;5.50;99.90;;;;;;5069645;28;20111;-87
2023/03/29 03:52:16;;;;;;;0.00;0.00;;;5.40;99.90;;;;;;5069562;28;20056;-87
2023/03/29 03:54:42;;;;;;;0.45;0.43;;;5.50;99.90;;;;;;5068005;28;20056;-86
2023/03/29 03:57:08;;;;;;;0.20;0.20;;;5.50;99.90;;;;;;5068653;28;20135;-86
2023/03/29 03:59:34;;;;;;;2.80;0.88;;;5.50;99.90;;;;;;5069629;28;20144;-86
2023/03/29 04:02:00;;;;;;;0.00;0.00;;;5.50;99.90;;;;;;5068449;28;20044;-86
2023/03/29 04:04:26;;;;;;;0.90;0.50;;;5.50;1.00;;;;;;5070427;28;20056;-86
2023/03/29 04:06:51;;;;;;;0.40;0.40;;;5.50;99.90;;;;;;5069442;28;20056;-87
2023/03/29 04:09:17;;;;;;;0.60;0.60;;;5.50;99.90;;;;;;5068251;28;20382;-87
2023/03/29 04:11:43;;;;;;;0.10;0.10;;;5.60;99.90;;;;;;5052345;28;20048;-86
2023/03/29 04:14:09;;;;;;;0.75;0.73;;;5.60;99.90;;;;;;5049455;28;20045;-86
2023/03/29 04:16:35;;;;;;;1.10;0.75;;;5.60;99.90;;;;;;5048699;28;20060;-87
2023/03/29 04:19:01;;;;;;;0.60;0.60;;;5.50;99.90;;;;;;5048901;28;20049;-87
2023/03/29 04:21:27;;;;;;;0.10;0.10;;;5.60;99.90;;;;;;5048559;28;20124;-87
2023/03/29 04:23:52;;;;;;;18.52;1.63;;;5.70;1.00;;;;;;5048038;28;20053;-87
2023/03/29 04:26:18;;;;;;;0.30;0.30;;;5.70;1.00;;;;;;5046990;28;20041;-87
2023/03/29 04:28:44;;;;;;;0.77;0.77;;;5.70;99.90;;;;;;5052742;28;20448;-88
2023/03/29 04:31:12;;;;;;;0.00;0.00;;;5.60;99.90;;;;;;5068710;28;20052;-87
2023/03/29 04:33:38;;;;;;;1.15;0.98;;;5.60;1.00;;;;;;5069880;28;20063;-87
2023/03/29 04:36:05;;;;;;;0.63;0.63;;;5.60;32.10;;;;;;5069054;28;20044;-87
2023/03/29 04:38:34;;;;;;;0.93;0.88;;;5.50;37.90;;;;;;5068172;28;20135;-87
2023/03/29 04:41:01;;;;;;;0.00;0.00;;;5.60;1.00;;;;;;5066519;28;20052;-87
2023/03/29 04:43:26;;;;;;;1.95;0.68;;;5.60;40.80;;;;;;5067995;28;20052;-87
2023/03/29 04:45:52;;;;;;;3.20;1.55;;;5.60;1.00;;;;;;5051305;28;20063;-87
2023/03/29 04:48:18;;;;;;;0.38;0.38;;;5.60;99.90;;;;;;5058335;28;20128;-87
2023/03/29 04:50:47;;;;;;;0.45;0.45;;;5.60;99.90;;;;;;5047980;28;20151;-87
2023/03/29 04:53:13;;;;;;;0.03;0.03;;;5.60;99.90;;;;;;5048362;28;20064;-86
2023/03/29 04:55:38;;;;;;;0.35;0.35;;;5.60;99.90;;;;;;5048369;28;20041;-87
2023/03/29 04:58:04;;;;;;;3.33;0.98;;;5.60;99.90;;;;;;5053552;28;20051;-87
2023/03/29 05:00:30;;;;;;;0.10;0.10;;;5.60;99.90;;;;;;5065842;28;20040;-87
2023/03/29 05:02:56;;;;;;;0.10;0.10;;;5.60;48.70;;;;;;5067819;28;20036;-86
2023/03/29 05:05:23;;;;;;;0.73;0.73;;;5.60;99.90;;;;;;5067799;28;20562;-87
2023/03/29 05:07:48;;;;;;;4.05;1.58;;;5.60;99.90;;;;;;5061042;28;20079;-86
2023/03/29 05:10:14;;;;;;;0.98;0.35;;;5.70;1.00;;;;;;5047837;28;20104;-87
2023/03/29 05:12:40;;;;;;;0.20;0.15;;;5.70;1.00;;;;;;5049352;28;20145;-87
2023/03/29 05:15:07;;;;;;;1.08;0.95;;;5.70;99.90;;;;;;5047603;28;20076;-86
2023/03/29 05:17:33;;;;;;;0.63;0.63;;;5.80;99.90;;;;;;5056571;28;20059;-86
2023/03/29 05:20:00;;;;;;;0.22;0.22;;;5.70;1.00;;;;;;5065930;28;20048;-87
2023/03/29 05:22:26;;;;;;;0.65;0.65;;;5.70;99.90;;;;;;5066102;28;20441;-87
2023/03/29 05:24:52;;;;;;;1.95;1.05;;;5.70;99.90;;;;;;5066149;28;20044;-86
2023/03/29 05:27:18;;;;;;;0.00;0.00;;;5.70;99.90;;;;;;5061092;28;20048;-87
2023/03/29 05:29:44;;;;;;;1.10;0.68;;;5.70;1.00;;;;;;5047452;28;20499;-87
2023/03/29 05:32:10;;;;;;;0.30;0.25;;;5.70;1.00;;;;;;5047828;28;20060;-86
2023/03/29 05:34:36;;;;;;;0.63;0.43;;;5.70;94.60;;;;;;5047819;28;20455;-86
2023/03/29 05:37:01;;;;;;;0.70;0.70;;;5.70;67.10;;;;;;5047635;28;20084;-87
2023/03/29 05:39:27;;;;;;;2.95;0.98;;;6.60;99.90;;;;;;5045693;28;20041;-87
2023/03/29 05:41:54;;;;;;;0.20;0.20;;;5.80;99.90;;;;;;5047903;28;20120;-87
2023/03/29 05:44:20;;;;;;;0.05;0.05;;;5.80;99.90;;;;;;5047278;28;20187;-87
2023/03/29 05:46:45;;;;;;;1.45;1.00;;;5.80;99.90;;;;;;5060742;28;20131;-86
2023/03/29 05:49:11;;;;;;;0.47;0.47;;;5.80;99.90;;;;;;5058813;28;20140;-86
2023/03/29 05:51:37;;;;;;;1.58;1.48;;;5.80;99.90;;;;;;5046468;28;20075;-85
2023/03/29 05:54:03;;;;;;;0.20;0.20;;;5.80;1.00;;;;;;5044065;28;20048;-86
2023/03/29 05:56:28;;;;;;;0.75;0.55;;;5.90;99.90;;;;;;5045509;28;20033;-86
2023/03/29 05:58:57;;;;;;;0.93;0.82;;;5.90;1.00;;;;;;5052235;28;20449;-86
2023/03/29 06:01:23;;;;;;;0.80;0.70;;;5.90;83.30;;;;;;5050733;28;20045;-86
2023/03/29 06:03:52;;;;;;;0.40;0.35;;;5.90;99.90;;;;;;5048732;28;20134;-86
2023/03/29 06:06:18;;;;;;;0.20;0.20;;;5.90;99.90;;;;;;5059151;28;20085;-86
2023/03/29 06:08:44;;;;;;;0.15;0.15;;;5.70;1.00;;;;;;5070863;28;20044;-86
2023/03/29 06:11:12;;;;;;;0.52;0.52;;;5.70;99.90;;;;;;5068841;28;20070;-86
2023/03/29 06:13:38;;;;;;;1.08;0.65;;;5.70;99.90;;;;;;5069166;28;20547;-86
2023/03/29 06:16:05;;;;;;;3.15;1.75;;;5.70;99.90;;;;;;5060348;28;20401;-86
2023/03/29 06:18:35;;;;;;;0.20;0.20;;;5.70;99.90;;;;;;5050733;28;20057;-86
2023/03/29 06:21:01;;;;;;;0.65;0.65;;;5.70;99.90;;;;;;5048309;28;20056;-86
2023/03/29 06:23:28;;;;;;;0.00;0.00;;;5.60;99.90;;;;;;5049997;28;20098;-87
2023/03/29 06:25:54;;;;;;;0.10;0.10;;;5.60;99.90;;;;;;5051006;28;20044;-86
2023/03/29 06:28:20;;;;;;;0.40;0.40;;;5.60;99.90;;;;;;5049573;28;20114;-86
2023/03/29 06:30:47;;;;;;;0.10;0.10;;;5.60;99.90;;;;;;5047901;28;20506;-86
2023/03/29 06:33:15;;;;;;;0.63;0.63;;;5.70;99.90;;;;;;5048670;28;20053;-86
2023/03/29 06:35:42;;;;;;;0.38;0.38;;;5.70;99.90;;;;;;5048291;28;20106;-86
2023/03/29 06:38:09;;;;;;;0.70;0.70;;;5.70;99.90;;;;;;5049700;28;20502;-87
2023/03/29 06:40:36;;;;;;;0.30;0.30;;;5.70;99.90;;;;;;5049747;28;20055;-87
2023/03/29 06:43:03;;;;;;;0.52;0.40;;;5.70;99.90;;;;;;5052062;28;20078;-87
2023/03/29 06:45:32;;;;;;;0.20;0.20;;;5.70;99.90;;;;;;5049692;28;20170;-86
2023/03/29 06:47:58;;;;;;;0.05;0.05;;;5.90;99.90;;;;;;5047425;28;20490;-87
2023/03/29 06:50:24;;;;;;;0.30;0.28;;;5.90;99.90;;;;;;5048342;28;20138;-86
2023/03/29 06:52:51;;;;;;;0.20;0.20;;;5.90;99.90;;;;;;5046461;28;20099;-86
2023/03/29 06:55:18;;;;;;;0.73;0.73;;;5.90;99.90;;;;;;5047769;28;21088;-87
2023/03/29 06:57:44;;;;;;;1.83;1.73;;;6.00;99.90;;;;;;5045936;28;20354;-87
2023/03/29 07:00:29;;;;;;;2.88;0.50;;;6.00;99.90;;;;;;5046567;28;20291;-87
2023/03/29 07:03:02;;;;;;;1.20;0.52;;;6.10;99.90;;;;;;5048181;28;20041;-87
2023/03/29 07:05:29;;;;;;;0.70;0.70;;;6.10;99.90;;;;;;5048698;28;20064;-87
2023/03/29 07:08:30;;;;;;;0.20;0.15;;;6.10;99.90;;;;;;5048768;28;20052;-87
2023/03/29 07:10:51;;;;;;;0.10;0.10;;;6.10;99.90;;;;;;5041578;28;20107;-87
2023/03/29 07:13:17;;;;;;;1.10;0.65;;;6.20;99.90;;;;;;5043399;28;20132;-87
2023/03/29 07:15:43;;;;;;;0.47;0.47;;;6.20;99.90;;;;;;5043434;28;20059;-87
2023/03/29 07:18:11;;;;;;;0.98;0.82;;;6.20;99.90;;;;;;5043414;28;20053;-87
2023/03/29 07:20:41;;;;;;;1.58;1.48;;;6.20;99.90;;;;;;5045097;28;20048;-87
2023/03/29 07:23:08;;;;;;;1.35;0.70;;;6.30;99.90;;;;;;5043762;28;20060;-87
2023/03/29 07:25:34;;;;;;;3.33;0.47;;;6.30;99.90;;;;;;5044894;28;20047;-87
2023/03/29 07:28:00;;;;;;;0.20;0.20;;;6.40;99.90;;;;;;5045278;28;20037;-87
2023/03/29 07:30:28;;;;;;;0.73;0.63;;;6.50;99.90;;;;;;5044317;28;20048;-87
2023/03/29 07:32:56;;;;;;;1.67;0.77;;;6.60;99.90;;;;;;5042729;28;20548;-87
2023/03/29 07:35:22;;;;;;;0.82;0.80;;;6.70;99.90;;;;;;5048260;28;20120;-87
2023/03/29 07:37:48;;;;;;;1.95;1.52;;;6.80;99.90;;;;;;5047857;28;20033;-87
2023/03/29 07:40:22;;;;;;;0.55;0.55;;;6.90;99.90;;;;;;5042783;28;20123;-87
2023/03/29 07:42:53;;;;;;;0.28;0.28;;;6.90;99.90;;;;;;5043269;28;20608;-86
2023/03/29 07:45:21;;;;;;;3.50;1.23;;;6.90;99.90;;;;;;5044811;28;20061;-87
2023/03/29 07:47:47;;;;;;;0.52;0.38;;;6.80;99.90;;;;;;5043077;28;20084;-87
2023/03/29 07:50:14;;;;;;;0.40;0.40;;;6.90;99.90;;;;;;5043497;28;20053;-87
2023/03/29 07:52:40;;;;;;;0.00;0.00;;;6.90;99.90;;;;;;5042318;28;20049;-87
2023/03/29 07:55:07;;;;;;;0.45;0.35;;;7.00;99.90;;;;;;5044634;28;20495;-87
2023/03/29 07:57:34;;;;;;;0.20;0.20;;;7.10;99.90;;;;;;5050154;28;20056;-87
2023/03/29 07:59:59;;;;;;;0.25;0.25;;;7.20;99.90;;;;;;5044723;28;20403;-87
2023/03/29 08:02:26;;;;;;;1.23;1.13;;;7.20;99.90;;;;;;5043994;28;20051;-87
2023/03/29 08:04:55;;;;;;;2.00;0.55;;;7.20;99.90;;;;;;5045341;28;20971;-87
2023/03/29 08:07:22;;;;;;;0.88;0.88;;;7.30;99.90;;;;;;5054404;28;20059;-87
2023/03/29 08:09:48;;;;;;;0.85;0.75;;;7.40;1.00;;;;;;5052778;28;20041;-87
2023/03/29 08:12:14;;;;;;;1.02;0.20;;;7.50;1.00;;;;;;5051850;28;20039;-87
2023/03/29 08:14:40;;;;;;;0.70;0.70;;;7.60;99.90;;;;;;5044060;28;20045;-88
2023/03/29 08:17:06;;;;;;;0.63;0.55;;;7.60;1.00;;;;;;5045370;28;20045;-88
2023/03/29 08:19:31;;;;;;;4.70;1.20;;;7.70;1.00;;;;;;5045674;28;20390;-88
2023/03/29 08:21:57;;;;;;;7.13;0.65;;;7.80;23.80;;;;;;5044920;28;20046;-87
2023/03/29 08:24:23;;;;;;;0.77;0.77;;;7.80;99.90;;;;;;5045341;28;20045;-88
2023/03/29 08:26:49;;;;;;;0.75;0.55;;;7.90;99.90;;;;;;5044877;28;20430;-88
2023/03/29 08:29:14;;;;;;;1.63;1.25;;;8.10;80.80;;;;;;5043187;28;20511;-88
2023/03/29 08:31:40;;;;;;;1.25;0.50;;;8.80;99.90;;;;;;5043853;28;20049;-87
2023/03/29 08:34:06;;;;;;;0.03;0.03;;;8.40;99.90;;;;;;5042173;28;20044;-87
2023/03/29 08:36:32;;;;;;;0.00;0.00;;;8.60;99.90;;;;;;5043881;28;20151;-88
2023/03/29 08:38:57;;;;;;;1.05;0.68;;;8.70;1.00;;;;;;5043983;28;20041;-87
2023/03/29 08:42:17;;;;;;;0.47;0.47;;;8.70;99.90;;;;;;5051532;28;20171;-87
2023/03/29 08:44:53;;;;;;;0.00;0.00;;;8.80;91.90;;;;;;5019427;28;20411;-86
2023/03/29 08:47:34;;;;;;;0.52;0.52;;;8.70;99.90;;;;;;5023056;28;20447;-87
2023/03/29 08:50:03;;;;;;;0.20;0.20;;;8.50;42.70;;;;;;5022582;28;20053;-87
2023/03/29 08:52:43;;;;;;;0.00;0.00;;;8.70;99.90;;;;;;5022930;28;20130;-87
2023/03/29 08:55:30;;;;;;;1.30;0.57;;;8.70;99.90;;;;;;5024825;28;20475;-87
2023/03/29 08:57:59;;;;;;;1.10;0.75;;;8.90;99.90;;;;;;5029212;28;20503;-87
2023/03/29 09:00:43;;;;;;;0.25;0.20;;;9.50;99.90;;;;;;5044455;28;20045;-88
2023/03/29 09:03:31;;;;;;;0.47;0.38;;;10.00;1.00;;;;;;5044824;28;20080;-88
2023/03/29 09:06:01;;;;;;;0.10;0.10;;;10.60;1.00;;;;;;5039372;28;20083;-88
2023/03/29 09:08:29;;;;;;;0.80;0.75;;;10.60;20.80;;;;;;5043239;28;20049;-88
2023/03/29 09:11:14;;;;;;;0.45;0.45;;;10.60;1.00;;;;;;5062104;28;20048;-88
2023/03/29 09:14:07;;;;;;;0.50;0.50;;;10.50;1.00;;;;;;5062590;28;20079;-88
2023/03/29 09:16:55;;;;;;;0.32;0.32;;;10.60;1.00;;;;;;5063577;28;20134;-87
2023/03/29 09:19:38;;;;;;;0.10;0.05;;;10.60;1.00;;;;;;5057933;28;20052;-88
2023/03/29 09:22:26;;;;;;;1.02;0.93;;;10.50;99.90;;;;;;5043927;28;20059;-87
2023/03/29 09:25:12;;;;;;;2.60;0.70;;;10.50;99.90;;;;;;5044500;28;20053;-88
2023/03/29 09:27:44;;;;;;;3.55;1.70;;;10.40;99.90;;;;;;5047696;28;20503;-87
2023/03/29 09:30:27;;;;;;;0.88;0.50;;;10.20;99.90;;;;;;5042645;28;20053;-88
2023/03/29 09:33:11;;;;;;;0.45;0.43;;;10.40;99.90;;;;;;5059586;28;20044;-88
2023/03/29 09:35:42;;;;;;;0.85;0.55;;;10.80;99.90;;;;;;5059259;28;20103;-88
2023/03/29 09:38:12;;;;;;;0.28;0.20;;;11.10;99.90;;;;;;5041226;28;20497;-88
2023/03/29 09:40:45;;;;;;;0.38;0.38;;;11.40;99.90;;;;;;5043084;28;20063;-88
2023/03/29 09:43:17;;;;;;;3.20;1.20;;;11.90;99.90;;;;;;5045263;28;20403;-87
2023/03/29 09:45:51;;;;;;;0.30;0.30;;;11.80;6.00;;;;;;5043366;28;20053;-87
2023/03/29 09:48:19;;;;;;;0.32;0.28;;;11.90;1.00;;;;;;5044772;28;20059;-88
2023/03/29 09:50:50;;;;;;;3.78;1.80;;;12.50;1.00;;;;;;5061287;28;20132;-88
2023/03/29 09:53:17;;;;;;;1.35;0.73;;;13.60;1.00;;;;;;5049235;28;20617;-87
2023/03/29 09:55:45;;;;;;;0.20;0.20;;;12.50;1.00;;;;;;5040772;28;20045;-87
2023/03/29 09:58:17;;;;;;;1.60;0.80;;;12.40;1.00;;;;;;5040779;28;20056;-87
2023/03/29 10:00:44;;;;;;;2.05;0.63;;;12.30;99.90;;;;;;5041963;28;20600;-87
2023/03/29 10:03:18;;;;;;;1.23;0.77;;;12.00;99.90;;;;;;5052281;28;20045;-87
2023/03/29 10:05:46;;;;;;;0.85;0.85;;;12.20;1.00;;;;;;5038813;28;20056;-87
2023/03/29 10:08:18;;;;;;;0.20;0.20;;;12.00;1.00;;;;;;5021749;28;20525;-87
2023/03/29 10:10:45;;;;;;;1.23;0.88;;;12.20;1.00;;;;;;5022544;28;20998;-87
2023/03/29 10:13:18;;;;;;;0.13;0.13;;;12.20;99.90;;;;;;5020820;28;20403;-87
2023/03/29 10:16:15;;;;;;;1.10;0.75;;;12.20;99.90;;;;;;5061370;28;20075;-87
2023/03/29 10:18:42;;;;;;;1.38;1.27;;;12.20;1.00;;;;;;5060071;28;20087;-87
2023/03/29 10:21:14;;;;;;;0.98;0.45;;;12.20;99.90;;;;;;5061550;28;20052;-87
2023/03/29 10:23:41;;;;;;;1.30;1.20;;;12.30;99.90;;;;;;5046965;28;20049;-87
2023/03/29 10:26:15;;;;;;;1.98;0.40;;;12.50;99.90;;;;;;5045330;28;20098;-87
2023/03/29 10:28:41;;;;;;;0.10;0.10;;;12.60;99.90;;;;;;5037909;28;20084;-87
2023/03/29 10:31:18;;;;;;;0.52;0.50;;;12.70;99.90;;;;;;5042188;28;20099;-87
2023/03/29 10:33:54;;;;;;;5.70;2.40;;;12.80;99.90;;;;;;5020239;28;20488;-87
2023/03/29 10:36:21;;;;;;;2.08;1.02;;;12.90;99.90;;;;;;5021405;28;20495;-87
2023/03/29 10:38:47;;;;;;;3.42;1.65;;;12.80;99.90;;;;;;5034767;28;20053;-87
2023/03/29 10:41:16;;;;;;;1.42;1.10;;;12.80;99.90;;;;;;5043028;28;20053;-87
2023/03/29 10:43:48;;;;;;;4.88;0.70;;;12.80;99.90;;;;;;5042556;28;20056;-87
2023/03/29 10:46:28;;;;;;;0.77;0.70;;;12.80;99.90;;;;;;5045477;28;20045;-87
2023/03/29 10:49:01;;;;;;;1.88;1.00;;;12.70;99.90;;;;;;5047084;28;20565;-87
2023/03/29 10:51:33;;;;;;;3.60;1.33;;;12.80;99.90;;;;;;5050499;28;20076;-86
2023/03/29 10:54:00;;;;;;;0.63;0.63;;;12.90;99.90;;;;;;5050161;28;20049;-86
2023/03/29 10:56:31;;;;;;;0.35;0.35;;;13.20;99.90;;;;;;5050002;28;20049;-86
2023/03/29 10:58:57;;;;;;;1.90;0.82;;;13.30;99.90;;;;;;5065512;28;20044;-86
2023/03/29 11:01:48;;;;;;;0.65;0.63;;;13.70;99.90;;;;;;5066891;28;20058;-87
2023/03/29 11:04:17;;;;;;;1.30;1.20;;;14.00;99.90;;;;;;5046011;28;20047;-87
2023/03/29 11:06:51;;;;;;;1.80;1.00;;;14.20;99.90;;;;;;5044371;28;20513;-86
2023/03/29 11:09:27;;;;;;;1.38;0.45;;;14.30;99.90;;;;;;5042410;28;20052;-86
2023/03/29 11:12:06;;;;;;;2.65;1.45;;;14.20;99.90;;;;;;5042748;28;20057;-87
2023/03/29 11:14:46;;;;;;;0.95;0.85;;;14.20;99.90;;;;;;5044788;28;20041;-86
2023/03/29 11:17:36;;;;;;;1.13;0.57;;;14.60;99.90;;;;;;5046094;28;20371;-86
2023/03/29 11:20:18;;;;;;;0.75;0.65;;;14.00;99.90;;;;;;5039616;28;20086;-86
2023/03/29 11:23:21;;;;;;;2.40;1.30;;;14.10;99.90;;;;;;5044167;28;20048;-86
2023/03/29 11:25:54;;;;;;;1.65;1.08;;;14.30;99.90;;;;;;5043863;28;20049;-86
2023/03/29 11:28:30;;;;;;;0.77;0.70;;;14.40;99.90;;;;;;5044408;28;20056;-86
2023/03/29 11:31:14;;;;;;;0.32;0.30;;;14.50;99.90;;;;;;5044246;28;20164;-86
2023/03/29 11:34:08;;;;;;;1.10;0.28;;;14.50;99.90;;;;;;5061629;28;20091;-86
2023/03/29 11:36:49;;;;;;;1.08;0.35;;;14.70;99.90;;;;;;5043272;28;20082;-87
2023/03/29 11:39:40;;;;;;;0.80;0.65;;;14.80;99.90;;;;;;5061508;28;20099;-84
2023/03/29 11:42:20;;;;;;;3.92;1.27;;;14.80;99.90;;;;;;5057667;28;20665;-86
2023/03/29 11:44:48;;;;;;;1.63;1.08;;;15.00;99.90;;;;;;5044179;28;20433;-87
2023/03/29 11:47:20;;;;;;;0.47;0.38;;;15.40;99.90;;;;;;5046480;28;20494;-86
2023/03/29 11:50:05;;;;;;;0.65;0.43;;;15.10;99.90;;;;;;5047211;28;20106;-86
2023/03/29 11:52:42;;;;;;;1.95;0.75;;;15.00;99.90;;;;;;5052188;28;20059;-86
2023/03/29 11:55:22;;;;;;;0.22;0.15;;;15.40;99.90;;;;;;5066066;28;20041;-86
2023/03/29 11:58:11;;;;;;;3.53;2.15;;;15.40;99.90;;;;;;5067701;28;20051;-86
2023/03/29 12:00:43;;;;;;;0.47;0.47;;;15.40;99.90;;;;;;5061405;28;20406;-85
2023/03/29 12:03:27;;;;;;;0.95;0.90;;;15.90;99.90;;;;;;5044631;28;20044;-84
2023/03/29 12:06:03;;;;;;;0.38;0.38;;;15.60;99.90;;;;;;5044418;28;20053;-84
2023/03/29 12:08:36;;;;;;;0.28;0.28;;;15.60;99.90;;;;;;5044539;28;20495;-84
2023/03/29 12:11:29;;;;;;;5.00;1.67;;;15.80;99.90;;;;;;5052946;28;20063;-84
2023/03/29 12:14:19;;;;;;;0.25;0.25;;;15.90;99.90;;;;;;5060783;28;20056;-84
2023/03/29 12:16:51;;;;;;;0.20;0.20;;;15.90;99.90;;;;;;5064288;28;20052;-84
2023/03/29 12:19:56;;;;;;;0.60;0.52;;;15.90;99.90;;;;;;5064297;28;20052;-85
2023/03/29 12:22:22;;;;;;;0.30;0.22;;;16.20;99.90;;;;;;5048892;28;20045;-85
2023/03/29 12:24:52;;;;;;;0.70;0.60;;;16.50;99.90;;;;;;5045046;28;20106;-85
2023/03/29 12:27:32;;;;;;;0.40;0.40;;;16.70;99.90;;;;;;5044676;28;20048;-85
2023/03/29 12:30:20;;;;;;;0.30;0.10;;;16.80;99.90;;;;;;5044808;28;20107;-85
2023/03/29 12:33:23;;;;;;;2.00;0.82;;;17.30;99.90;;;;;;5049531;28;20128;-85
2023/03/29 12:36:19;;;;;;;1.02;0.88;;;17.60;99.90;;;;;;5055650;28;20092;-86
2023/03/29 12:38:47;;;;;;;0.75;0.75;;;17.10;92.70;;;;;;5044077;28;20055;-85
2023/03/29 12:41:22;;;;;;;1.98;1.10;;;16.90;99.90;;;;;;5044573;28;20147;-85
2023/03/29 12:43:47;;;;;;;1.73;1.30;;;16.90;99.90;;;;;;5055742;28;20080;-85
2023/03/29 12:46:17;;;;;;;1.33;1.13;;;17.00;94.10;;;;;;5063055;28;20693;-85
2023/03/29 12:48:46;;;;;;;1.92;0.63;;;16.70;98.80;;;;;;5063605;28;20044;-84
2023/03/29 12:51:19;;;;;;;0.75;0.55;;;17.10;96.90;;;;;;5061652;28;20048;-85
2023/03/29 12:53:49;;;;;;;0.13;0.13;;;16.90;99.90;;;;;;5063466;28;20171;-85
2023/03/29 12:56:20;;;;;;;0.73;0.57;;;16.80;92.60;;;;;;5066192;28;20167;-85
2023/03/29 12:58:52;;;;;;;0.52;0.25;;;16.60;77.50;;;;;;5063932;28;20186;-85
2023/03/29 13:01:29;;;;;;;1.27;0.75;;;16.30;78.10;;;;;;5063511;28;20063;-85
2023/03/29 13:04:18;;;;;;;1.05;0.98;;;16.20;92.30;;;;;;5063756;28;20459;-85
2023/03/29 13:07:03;;;;;;;0.17;0.17;;;16.30;88.00;;;;;;5063477;28;20062;-85
2023/03/29 13:09:35;;;;;;;0.28;0.28;;;16.30;89.20;;;;;;5059343;28;20045;-85
2023/03/29 13:12:36;;;;;;;1.08;0.65;;;16.30;81.30;;;;;;5044423;28;20056;-84
2023/03/29 13:15:20;;;;;;;0.88;0.60;;;16.40;78.70;;;;;;5043790;28;20132;-85
2023/03/29 13:18:20;;;;;;;0.15;0.15;;;16.40;80.60;;;;;;5043658;28;20040;-85
2023/03/29 13:20:52;;;;;;;0.35;0.35;;;16.10;74.20;;;;;;5054351;28;20418;-85